CW3467 Sant Marti de Canals ES current weather conditions

sailwx.info

Wind from 221 at 2 knots gusting 5

Air temperature 33.3° C
Dewpoint 12.9° C

Last reported at 2016-Jul-29 12:37 UTC.
Time now 2016-Jul-29 14:03 UTC

Location: N 42°14' E 000°59'.
View on Google Maps.

See reports from other nearby stations

  
Tides and Currents Weather Stations Pressure Air Temp Water Temp Dewpoint Dewpoint Depression Visibility Wind Speed Wind Dir Waves Ship Positions
date/time (UTC)wind fromknots sea level pressurealtimeterstation pressurevisibilityair tempwater tempwave heightnotes
2016-Jul-29 12:37 221 2 gusting 5 33.3
2016-Jul-29 10:37 141 1 gusting 5 30.6
2016-Jul-29 10:07 340 28.9
2016-Jul-29 09:37 246 0 gusting 2 28.3
2016-Jul-29 08:37 221 0 gusting 3 25.0
2016-Jul-29 07:07 219 22.2
2016-Jul-29 06:07 142 1 gusting 2 18.3
2016-Jul-29 04:07 113 18.3
2016-Jul-29 03:07 134 18.9
2016-Jul-29 02:37 086 0 gusting 0 18.9
2016-Jul-29 02:07 056 19.4
2016-Jul-29 00:37 114 0 gusting 1 21.1
2016-Jul-29 00:07 151 0 gusting 1 21.7
2016-Jul-28 23:07 346 0 gusting 1 23.3
2016-Jul-28 21:07 354 25.6
2016-Jul-28 20:07 120 3 gusting 8 27.2
2016-Jul-28 18:37 149 5 gusting 8 29.4
2016-Jul-28 17:07 188 5 gusting 7 31.1
2016-Jul-28 16:37 246 4 gusting 7 31.7
2016-Jul-28 15:37 259 3 gusting 14 31.7
2016-Jul-28 15:07 236 6 gusting 11 31.7
2016-Jul-28 13:07 153 1 gusting 9 30.6
2016-Jul-28 12:07 238 3 gusting 5 30.0
2016-Jul-28 11:37 233 29.4
2016-Jul-28 11:07 260 28.9
2016-Jul-28 09:07 335 1 gusting 3 25.6
2016-Jul-28 05:37 131 17.2
2016-Jul-28 05:07 132 17.2
2016-Jul-28 04:37 125 0 gusting 0 17.8
2016-Jul-28 04:07 113 17.8
2016-Jul-28 02:37 137 18.9
2016-Jul-28 01:37 127 1 gusting 2 19.4
2016-Jul-28 01:07 150 1 gusting 2 20.0
2016-Jul-28 00:37 120 1 gusting 1 20.6
2016-Jul-28 00:07 125 0 gusting 0 20.6
2016-Jul-27 23:07 064 21.7
2016-Jul-27 22:37 045 22.8
2016-Jul-27 22:07 256 23.3
2016-Jul-27 21:37 016 0 gusting 1 23.3
2016-Jul-27 19:07 225 6 gusting 10 28.3
2016-Jul-27 18:07 305 4 gusting 10 30.0
2016-Jul-27 17:07 212 4 gusting 12 30.6
2016-Jul-27 16:07 216 5 gusting 9 31.7